Decoded Metar for LFMC (LE LUC in FRANCE) (IATA:N/A) | Meteo·Mobile Aviation Weather
aviador You're here:

LFMC Decoded Metar

LE LUC in FRANCE
Report Time2019-01-18 00:00:00
UTC Time2019-01-18 00:12:22
Flight Rules vfr VFR
Wind250° at 11 kt
W.Decomp.*RWY 27: 10.3 kt HW 3.9 kt LCW
RWY 31: 5.3 kt HW 9.6 kt LCW
W.Rank250° ranks 5
Current wind is above 250° avg. (6.5)
Visibility9999 m
Phenomena:N/A
Clouds:N/A
Expected CloudBase > 2,800 ft AGL from Temp-Dew spread
CeilingNone
Temp07°C (ISA -7)
Dew Point00°C (61% RH)
AAT1.1°C
QNH1012 hPa
Density Alt-525 ft
Elevation256 ft
Report Wrong Elevation
Raw Report
METAR LFMC 180000Z AUTO 25011KT 220V290 9999 ////// 07/M00 Q1012=

Extra information for LFMC:More info

Metar Taf Metar & Taf Last 4 Metars F.Rules Stats Wind Profile Meteogram Temp Stats Airport Information Weather charts Add Link Nearby VenuesMetar ALERT Operation Metar Decoded Social comments